Appomattox, VA

1:43 PM EDT on July 28, 2015 (GMT -0400)
APRSWXNET | | Change Station
CLOSE
Current Station
Personal Weather Station
Location: Appomattox, VA
Elevation: 839 ft
Nearby Weather Stations

Elev 839 ft 37.36 °N, 78.83 °W | Updated 37 minutes ago

Overcast
Overcast
84 °F
Feels Like 93 °F
N
0
Wind Variable Wind from West
Gusts 5.0 mph

Today
High -- | Low -- °F
--% Chance of Precip.
Yesterday
High -- | Low -- °F
Precip. -- in
6:16 AM 8:26 PM
Waxing Gibbous, 90% visible
Pressure 30.01 in
Visibility 10.0 miles
Clouds Few 2400 ft
Scattered Clouds 3000 ft
Heat Index 93 °F
Dew Point 76 °F
Humidity 76%
Rainfall in
Snow Depth Not available.
UV 9 out of 12
Pollen 3.00 out of 12
Air Quality Not available.
Flu Activity Not available.
METAR KLYH 281654Z 00000KT 10SM FEW024 SCT030 28/22 A3004 RMK AO2 LTG DSNT E SLP162 T02780222

More Conditions Fewer Conditions

Pressure 30.01 in
Visibility 10.0 miles
Clouds Few 2400 ft
Scattered Clouds 3000 ft
Heat Index 93 °F
Dew Point 76 °F
Humidity 76%
Rainfall in
Snow Depth Not available.
UV 9 out of 12
Pollen 3.00 out of 12
Air Quality Not available.
Flu Activity Not available.
METAR KLYH 281654Z 00000KT 10SM FEW024 SCT030 28/22 A3004 RMK AO2 LTG DSNT E SLP162 T02780222

More Conditions Fewer Conditions

Nowcast | as of 1:38 PM EDT on July 28, 2015

at 134 PM EDT...Doppler radar indicated clusters of slow moving showers and isolated thunderstorms across the region. These will result in very heavy rainfall with up to an inch of rain in spots through 230 PM. The heaviest rain can expected across northern Halifax County into Charlotte County. Wind gusts to 35 mph could also occur. Locations impacted include... South Boston... Halifax... Brookneal... Keysville... and Charlotte Court House.

×

10-Day Weather Forecast

×

Almanac

Astronomy

Jul. 28, 2015 Rise Set
Actual Time
Civil Twilight
Nautical Twilight
Astronomical Twilight
Moon
Length of Visible Light
Length of Day
Tomorrow will be .
, % of the Moon is Illuminated

Today's Extremes

State Highs State Lows

Community

WunderPhotos

Upload Photos

1,841,900 photos uploaded!

WunderBlogs® & News

Nearby

Air Quality

  Air Quality AQ Index Pollutant
Not available.

Snow Depth

Station Depth Elevation

Earthquake Activity

City Distance Mag. Time & Date
Minimum magnitude displayed is 2.5.

Coastal Water Temperatures

Place Temperature

Stations

Nearby Weather Stations

Station Location Temp. Windchill Dew Point Humidity Wind Precip. Elev Updated Type